Clyde, Iowa
Current Conditions -  °F | °C
As of 9:53 PM on Saturday 20 Dec 2014 (Local Time) from KAMW Reporting Station
Haze Haze  
Wind Chill: 27°   Ceiling: 1000
Heat Index: 33°   Visibility: 4mi
Dew Point: 32°   Wind: 7mph
Humidity: 96%   Direction: 140°SE
Pressure: 30.09"   Gusts: NA
Location:  41.9063°N, 93.2893°W
Report Text: KAMW 210353Z AUTO 14006KT 4SM BR OVC010 01/00 A3009 RMK AO2 SLP198 T00060000
Loading
Personal Weather Stations






























Interactive Weather Map New forecast layout! Learn more

10-Day Weather Forecast

Advertisements
Track Severe Weather on mobile